createdAt,value
2018-04-13T00:01:37.001Z,12.53
2018-04-13T00:04:04.760Z,12.40
2018-04-13T00:06:32.480Z,13.23
2018-04-13T00:09:00.371Z,11.00
2018-04-13T00:11:28.074Z,12.00
2018-04-13T00:13:55.713Z,11.90
2018-04-13T00:16:23.553Z,12.13
2018-04-13T00:18:51.275Z,11.43
2018-04-13T00:21:18.896Z,11.50
2018-04-13T00:23:46.589Z,11.83
2018-04-13T00:26:14.299Z,11.13
2018-04-13T00:28:42.001Z,11.50
2018-04-13T00:31:09.749Z,10.87
2018-04-13T00:33:37.416Z,10.83
2018-04-13T00:36:05.072Z,12.07
2018-04-13T00:38:32.769Z,13.23
2018-04-13T00:41:00.425Z,11.33
2018-04-13T00:43:28.054Z,12.63
2018-04-13T00:45:55.915Z,12.87
2018-04-13T00:48:23.559Z,11.87
2018-04-13T00:50:51.489Z,12.97
2018-04-13T00:53:31.628Z,11.93
2018-04-13T00:55:59.362Z,12.57
2018-04-13T00:58:27.011Z,11.60
2018-04-13T01:00:54.896Z,11.93
2018-04-13T01:03:22.516Z,12.27
2018-04-13T01:05:50.241Z,11.43
2018-04-13T01:08:17.993Z,12.27
2018-04-13T01:10:46.472Z,11.97
2018-04-13T01:13:14.172Z,11.60
2018-04-13T01:15:42.089Z,11.10
2018-04-13T01:18:09.792Z,10.87
2018-04-13T01:20:37.500Z,11.53
2018-04-13T01:23:05.936Z,10.57
2018-04-13T01:25:33.621Z,12.03
2018-04-13T01:28:01.360Z,12.30
2018-04-13T01:30:29.305Z,12.70
2018-04-13T01:32:56.960Z,12.07
2018-04-13T01:35:25.758Z,11.27
2018-04-13T01:37:53.716Z,12.10
2018-04-13T01:40:22.574Z,11.97
2018-04-13T01:42:50.624Z,11.80
2018-04-13T01:45:25.104Z,12.53
2018-04-13T01:47:53.153Z,13.80
2018-04-13T01:50:20.842Z,14.23
2018-04-13T01:52:48.501Z,12.17
2018-04-13T01:55:16.302Z,12.33
2018-04-13T01:57:43.890Z,12.23
2018-04-13T02:00:11.552Z,11.20
2018-04-13T02:02:39.194Z,13.00
2018-04-13T02:05:06.833Z,10.47
2018-04-13T02:07:34.426Z,10.60
2018-04-13T02:10:02.059Z,11.10
2018-04-13T02:12:29.668Z,11.60
2018-04-13T02:14:57.361Z,9.60
2018-04-13T02:17:25.109Z,9.70
2018-04-13T02:19:52.761Z,10.60
2018-04-13T02:22:20.520Z,10.20
2018-04-13T02:24:48.174Z,10.87
2018-04-13T02:27:15.768Z,10.27
2018-04-13T02:29:43.404Z,9.63
2018-04-13T02:32:11.111Z,10.40
2018-04-13T02:34:38.841Z,10.80
2018-04-13T02:37:06.390Z,12.37
2018-04-13T02:39:34.080Z,11.43
2018-04-13T02:42:01.700Z,12.40
2018-04-13T02:44:29.308Z,12.13
2018-04-13T02:46:57.017Z,13.07
2018-04-13T02:49:24.686Z,12.70
2018-04-13T02:51:52.559Z,11.60
2018-04-13T02:54:20.163Z,10.80
2018-04-13T02:56:47.795Z,9.73
2018-04-13T02:59:15.501Z,12.17
2018-04-13T03:01:43.135Z,11.80
2018-04-13T03:04:10.785Z,11.70
2018-04-13T03:06:38.441Z,11.50
2018-04-13T03:09:06.038Z,12.10
2018-04-13T03:11:33.698Z,12.53
2018-04-13T03:14:01.312Z,10.80
2018-04-13T03:16:29.089Z,12.43
2018-04-13T03:18:56.764Z,12.10
2018-04-13T03:21:24.360Z,11.67
2018-04-13T03:23:52.025Z,11.70
2018-04-13T03:26:19.645Z,10.77
2018-04-13T03:28:47.300Z,11.00
2018-04-13T03:31:14.905Z,10.83
2018-04-13T03:33:42.567Z,11.80
2018-04-13T03:36:10.160Z,10.53
2018-04-13T03:38:37.805Z,10.80
2018-04-13T03:41:05.409Z,11.60
2018-04-13T03:43:33.033Z,11.33
2018-04-13T03:46:00.673Z,10.80
2018-04-13T03:48:28.342Z,12.40
2018-04-13T03:50:55.940Z,11.30
2018-04-13T03:53:23.574Z,9.90
2018-04-13T03:55:51.187Z,11.20
2018-04-13T03:58:18.819Z,10.33
2018-04-13T04:00:46.416Z,9.23
2018-04-13T04:03:14.072Z,9.63
2018-04-13T04:05:41.721Z,9.87
2018-04-13T04:08:09.413Z,29.97
2018-04-13T04:10:37.369Z,10.40
2018-04-13T04:13:05.126Z,9.43
2018-04-13T04:15:32.857Z,10.20
2018-04-13T04:18:00.637Z,9.30
2018-04-13T04:20:39.795Z,9.63
2018-04-13T04:23:19.064Z,10.47
2018-04-13T04:28:47.998Z,10.67
2018-04-13T04:31:15.683Z,11.20
2018-04-13T04:33:43.467Z,11.23
2018-04-13T04:36:11.110Z,12.57
2018-04-13T04:38:38.852Z,13.43
2018-04-13T04:41:06.624Z,14.80
2018-04-13T04:43:34.305Z,21.63
2018-04-13T04:46:01.935Z,11.40
2018-04-13T04:48:29.549Z,10.63
2018-04-13T04:50:57.246Z,10.17
2018-04-13T04:53:24.849Z,10.77
2018-04-13T04:55:52.580Z,10.60
2018-04-13T04:58:20.177Z,10.30
2018-04-13T05:00:47.900Z,10.50
2018-04-13T05:03:15.516Z,12.23
2018-04-13T05:05:43.161Z,11.67
2018-04-13T05:08:10.783Z,10.57
2018-04-13T05:10:38.439Z,11.40
2018-04-13T05:13:06.241Z,12.13
2018-04-13T05:15:33.904Z,12.10
2018-04-13T05:18:01.547Z,10.77
2018-04-13T05:20:29.149Z,11.13
2018-04-13T05:22:56.810Z,11.47
2018-04-13T05:25:24.548Z,12.03
2018-04-13T05:27:52.192Z,13.40
2018-04-13T05:30:19.826Z,11.80
2018-04-13T05:32:47.474Z,12.60
2018-04-13T05:35:15.094Z,11.60
2018-04-13T05:37:42.714Z,13.03
2018-04-13T05:40:10.348Z,13.90
2018-04-13T05:42:38.011Z,13.43
2018-04-13T05:45:05.737Z,14.60
2018-04-13T05:47:33.394Z,13.70
2018-04-13T05:50:01.041Z,14.70
2018-04-13T05:52:28.865Z,15.47
2018-04-13T05:54:56.608Z,14.57
2018-04-13T05:57:24.348Z,14.17
2018-04-13T05:59:53.308Z,13.60
2018-04-13T06:02:21.099Z,14.50
2018-04-13T06:04:48.755Z,14.53
2018-04-13T06:07:17.579Z,16.17
2018-04-13T06:09:45.688Z,15.13
2018-04-13T06:12:13.621Z,14.60
2018-04-13T06:14:41.516Z,14.57
2018-04-13T06:17:10.204Z,16.20
2018-04-13T06:19:38.467Z,14.80
2018-04-13T06:22:06.787Z,13.50
2018-04-13T06:24:39.486Z,14.50
2018-04-13T06:27:26.486Z,14.77
2018-04-13T06:33:08.011Z,14.60
2018-04-13T06:35:35.769Z,14.97
2018-04-13T06:38:04.777Z,14.57
2018-04-13T06:40:32.584Z,14.67
2018-04-13T06:43:00.367Z,14.47
2018-04-13T06:48:04.434Z,16.23
2018-04-13T06:50:34.144Z,15.73
2018-04-13T06:53:01.791Z,14.73
2018-04-13T06:55:29.667Z,15.03
2018-04-13T06:57:57.586Z,15.83
2018-04-13T07:00:25.503Z,16.40
2018-04-13T07:02:57.017Z,15.23
2018-04-13T07:05:24.700Z,18.60
2018-04-13T07:07:52.335Z,15.80
2018-04-13T07:10:20.074Z,16.40
2018-04-13T07:12:47.870Z,15.60
2018-04-13T07:15:15.554Z,17.17
2018-04-13T07:17:43.263Z,17.27
2018-04-13T07:20:10.948Z,18.90
2018-04-13T07:22:38.548Z,19.10
2018-04-13T07:25:06.198Z,23.80
2018-04-13T07:27:33.810Z,19.57
2018-04-13T07:30:01.469Z,19.57
2018-04-13T07:32:29.076Z,20.53
2018-04-13T07:34:56.729Z,20.50
2018-04-13T07:37:24.364Z,20.93
2018-04-13T07:39:52.312Z,19.87
2018-04-13T07:42:19.748Z,19.83
2018-04-13T07:44:47.384Z,22.97
2018-04-13T07:47:15.063Z,22.60
2018-04-13T07:49:42.738Z,23.53
2018-04-13T07:52:10.430Z,21.90
2018-04-13T07:54:38.121Z,21.50
2018-04-13T07:57:05.895Z,20.47
2018-04-13T07:59:33.623Z,21.63
2018-04-13T08:02:01.398Z,21.10
2018-04-13T08:04:29.095Z,25.43
2018-04-13T08:06:56.891Z,26.90
2018-04-13T08:09:24.608Z,28.50
2018-04-13T08:11:52.305Z,26.73
2018-04-13T08:14:19.896Z,26.40
2018-04-13T08:16:47.662Z,28.13
2018-04-13T08:19:15.405Z,26.07
2018-04-13T08:21:43.064Z,33.60
2018-04-13T08:24:10.766Z,30.47
2018-04-13T08:26:38.597Z,28.87
2018-04-13T08:29:06.238Z,25.93
2018-04-13T08:31:34.737Z,27.20
2018-04-13T08:34:02.572Z,30.10
2018-04-13T08:36:30.172Z,30.90
2018-04-13T08:38:58.755Z,30.97
2018-04-13T08:41:26.685Z,35.60
2018-04-13T08:43:54.389Z,33.80
2018-04-13T08:46:22.017Z,34.57
2018-04-13T08:48:49.782Z,39.47
2018-04-13T08:51:17.400Z,39.87
2018-04-13T08:53:45.115Z,45.10
2018-04-13T08:56:12.733Z,42.57
2018-04-13T08:58:40.526Z,43.47
2018-04-13T09:01:08.428Z,40.87
2018-04-13T09:03:36.083Z,43.37
2018-04-13T09:06:03.687Z,42.27
2018-04-13T09:08:31.350Z,42.53
2018-04-13T09:10:58.971Z,42.07
2018-04-13T09:13:27.346Z,41.93
2018-04-13T09:15:55.006Z,40.87
2018-04-13T09:18:22.677Z,45.80
2018-04-13T09:20:50.351Z,50.23
2018-04-13T09:23:18.347Z,45.90
2018-04-13T09:25:45.956Z,48.10
2018-04-13T09:28:13.738Z,48.10
2018-04-13T09:30:41.384Z,49.90
2018-04-13T09:33:09.004Z,54.20
2018-04-13T09:35:36.655Z,51.30
2018-04-13T09:38:04.291Z,51.63
2018-04-13T09:40:32.041Z,49.63
2018-04-13T09:42:59.871Z,50.00
2018-04-13T09:45:27.560Z,46.27
2018-04-13T09:47:55.192Z,44.93
2018-04-13T09:50:22.874Z,43.93
2018-04-13T09:52:50.546Z,45.33
2018-04-13T09:55:18.212Z,47.07
2018-04-13T09:57:45.821Z,50.20
2018-04-13T10:24:48.181Z,35.20
2018-04-13T10:30:09.001Z,33.57
2018-04-13T10:32:41.027Z,32.67
2018-04-13T10:35:14.862Z,33.47
2018-04-13T10:37:48.891Z,30.70
2018-04-13T10:43:16.993Z,30.57
2018-04-13T10:45:59.688Z,28.33
2018-04-13T10:48:35.208Z,25.50
2018-04-13T10:51:21.067Z,26.17
2018-04-13T10:53:57.468Z,21.40
2018-04-13T10:56:28.093Z,21.97
2018-04-13T10:59:01.921Z,22.53
2018-04-13T11:01:33.575Z,21.50
2018-04-13T11:04:05.618Z,21.33
2018-04-13T11:06:40.652Z,20.40
2018-04-13T11:09:12.878Z,20.97
2018-04-13T11:11:47.858Z,17.83
2018-04-13T11:17:07.902Z,16.80
2018-04-13T11:19:53.662Z,15.33
2018-04-13T11:25:45.115Z,15.50
2018-04-13T11:28:16.154Z,13.70
2018-04-13T11:30:53.837Z,12.23
2018-04-13T11:36:26.508Z,10.30
2018-04-13T11:39:13.826Z,12.40
2018-04-13T11:41:55.566Z,9.93
2018-04-13T11:44:26.588Z,10.00
2018-04-13T11:47:01.079Z,8.07
2018-04-13T11:52:23.372Z,8.90
2018-04-13T11:57:35.542Z,8.60
2018-04-13T12:00:22.615Z,7.40
2018-04-13T12:03:05.013Z,7.73
2018-04-13T12:05:42.609Z,8.33
2018-04-13T12:08:17.147Z,8.00
2018-04-13T12:13:52.998Z,7.57
2018-04-13T12:16:29.671Z,9.17
2018-04-13T12:19:06.236Z,8.30
2018-04-13T12:21:55.824Z,9.10
2018-04-13T12:24:27.579Z,7.37
2018-04-13T12:26:56.353Z,10.10
2018-04-13T12:29:24.757Z,7.83
2018-04-13T12:32:08.509Z,8.13
2018-04-13T12:34:41.773Z,7.80
2018-04-13T12:37:18.239Z,9.80
2018-04-13T12:39:48.530Z,7.03
2018-04-13T12:42:18.801Z,7.50
2018-04-13T12:44:47.580Z,7.30
2018-04-13T12:47:18.118Z,6.97
2018-04-13T12:49:56.614Z,5.90
2018-04-13T12:52:28.282Z,5.27
2018-04-13T12:58:09.805Z,4.93
2018-04-13T13:00:46.358Z,4.80
2018-04-13T13:06:12.105Z,5.10
2018-04-13T13:12:03.341Z,3.67
2018-04-13T13:14:38.304Z,3.87
2018-04-13T13:17:06.214Z,3.83
2018-04-13T13:19:48.104Z,2.93
2018-04-13T13:22:21.148Z,3.93
2018-04-13T13:27:30.046Z,4.10
2018-04-13T13:35:52.588Z,3.90
2018-04-13T13:41:14.276Z,4.13
2018-04-13T13:43:47.041Z,3.77
2018-04-13T13:46:14.690Z,3.90
2018-04-13T13:48:42.535Z,4.10
2018-04-13T13:51:10.184Z,3.70
2018-04-13T13:53:37.901Z,5.47
2018-04-13T13:56:05.593Z,4.83
2018-04-13T13:58:33.314Z,4.57
2018-04-13T14:01:00.909Z,5.13
2018-04-13T14:03:28.600Z,5.97
2018-04-13T14:05:56.261Z,6.23
2018-04-13T14:08:24.025Z,6.27
2018-04-13T14:10:51.702Z,6.30
2018-04-13T14:13:19.386Z,6.17
2018-04-13T14:15:47.053Z,5.87
2018-04-13T14:18:14.804Z,5.80
2018-04-13T14:20:42.500Z,6.00
2018-04-13T14:23:10.146Z,5.87
2018-04-13T14:25:37.853Z,6.60
2018-04-13T14:28:05.570Z,6.00
2018-04-13T14:30:33.289Z,6.03
2018-04-13T14:33:01.009Z,6.67
2018-04-13T14:35:28.670Z,6.37
2018-04-13T14:37:56.306Z,7.13
2018-04-13T14:40:23.938Z,6.30
2018-04-13T14:42:51.598Z,7.27
2018-04-13T14:45:19.288Z,5.47
2018-04-13T14:47:46.946Z,7.27
2018-04-13T14:50:14.635Z,6.27
2018-04-13T14:52:42.293Z,7.53
2018-04-13T14:55:09.985Z,6.53
2018-04-13T14:57:37.773Z,5.57
2018-04-13T15:00:05.485Z,6.30
2018-04-13T15:02:33.149Z,7.23
2018-04-13T15:05:00.865Z,6.57
2018-04-13T15:07:28.630Z,5.90
2018-04-13T15:09:56.245Z,5.60
2018-04-13T15:12:23.953Z,5.37
2018-04-13T15:14:51.581Z,5.03
2018-04-13T15:17:19.330Z,4.73
2018-04-13T15:19:46.958Z,4.77
2018-04-13T15:22:14.635Z,4.33
2018-04-13T15:24:42.233Z,4.63
2018-04-13T15:27:10.061Z,5.10
2018-04-13T15:29:37.706Z,4.40
2018-04-13T15:32:05.427Z,5.17
2018-04-13T15:34:33.104Z,4.70
2018-04-13T15:37:00.957Z,5.20
2018-04-13T15:39:28.752Z,4.63
2018-04-13T15:41:56.374Z,4.43
2018-04-13T15:44:24.123Z,5.37
2018-04-13T15:46:51.825Z,5.30
2018-04-13T15:49:19.498Z,5.33
2018-04-13T15:51:47.116Z,6.37
2018-04-13T15:54:14.922Z,7.57
2018-04-13T15:56:42.678Z,19.30
2018-04-13T15:59:10.373Z,5.20
2018-04-13T16:01:38.157Z,4.93
2018-04-13T16:04:05.726Z,5.80
2018-04-13T16:06:33.331Z,5.40
2018-04-13T16:09:00.935Z,5.77
2018-04-13T16:11:28.645Z,5.50
2018-04-13T16:13:56.230Z,5.80
2018-04-13T16:16:23.885Z,5.60
2018-04-13T16:18:51.462Z,6.37
2018-04-13T16:21:19.132Z,7.00
2018-04-13T16:23:46.754Z,6.00
2018-04-13T16:26:14.405Z,6.30
2018-04-13T16:28:42.019Z,6.97
2018-04-13T16:31:10.456Z,7.63
2018-04-13T16:33:38.063Z,6.20
2018-04-13T16:36:05.727Z,6.50
2018-04-13T16:38:33.517Z,7.10
2018-04-13T16:41:01.161Z,7.40
2018-04-13T16:43:28.760Z,7.63
2018-04-13T16:45:56.386Z,6.90
2018-04-13T16:48:24.036Z,6.70
2018-04-13T16:50:51.660Z,6.90
2018-04-13T16:53:19.296Z,6.80
2018-04-13T16:55:46.922Z,7.70
2018-04-13T16:58:14.562Z,6.80
2018-04-13T17:00:42.162Z,9.07
2018-04-13T17:03:09.812Z,7.20
2018-04-13T17:05:37.566Z,6.43
2018-04-13T17:08:05.203Z,7.20
2018-04-13T17:10:32.828Z,8.10
2018-04-13T17:13:00.500Z,7.80
2018-04-13T17:15:28.110Z,8.67
2018-04-13T17:17:55.779Z,8.23
2018-04-13T17:20:23.372Z,6.80
2018-04-13T17:22:50.982Z,7.77
2018-04-13T17:25:18.631Z,7.77
2018-04-13T17:27:46.224Z,9.10
2018-04-13T17:30:13.869Z,9.67
2018-04-13T17:32:41.523Z,8.00
2018-04-13T17:35:09.186Z,9.13
2018-04-13T17:37:36.804Z,7.93
2018-04-13T17:40:04.469Z,8.40
2018-04-13T17:42:32.083Z,48.73
2018-04-13T17:44:59.746Z,23.70
2018-04-13T17:47:27.449Z,21.77
2018-04-13T17:49:55.102Z,10.20
2018-04-13T17:52:22.716Z,10.10
2018-04-13T17:54:50.369Z,10.17
2018-04-13T17:57:18.002Z,9.50
2018-04-13T17:59:45.679Z,9.50
2018-04-13T18:02:13.292Z,10.53
2018-04-13T18:04:40.983Z,10.63
2018-04-13T18:07:08.596Z,9.77
2018-04-13T18:09:36.286Z,8.60
2018-04-13T18:12:03.937Z,9.00
2018-04-13T18:14:31.614Z,11.40
2018-04-13T18:16:59.242Z,11.37
2018-04-13T18:19:26.874Z,8.80
2018-04-13T18:21:54.514Z,9.50
2018-04-13T18:24:22.139Z,10.00
2018-04-13T18:26:49.810Z,10.17
2018-04-13T18:29:17.411Z,9.00
2018-04-13T18:31:45.082Z,8.90
2018-04-13T18:34:12.773Z,9.57
2018-04-13T18:36:40.513Z,9.33
2018-04-13T18:39:08.170Z,8.93
2018-04-13T18:41:35.795Z,15.10
2018-04-13T18:44:03.406Z,11.00
2018-04-13T18:46:31.114Z,9.70
2018-04-13T18:48:58.746Z,10.40
2018-04-13T18:51:26.407Z,9.57
2018-04-13T18:53:54.059Z,14.43
2018-04-13T18:56:21.740Z,12.70
2018-04-13T18:58:49.399Z,11.57
2018-04-13T19:01:17.050Z,13.63
2018-04-13T19:03:44.676Z,12.30
2018-04-13T19:06:12.524Z,13.00
2018-04-13T19:08:40.267Z,12.97
2018-04-13T19:11:07.922Z,13.37
2018-04-13T19:13:35.598Z,36.63
2018-04-13T19:16:03.241Z,14.53
2018-04-13T19:18:30.921Z,12.27
2018-04-13T19:20:58.689Z,10.27
2018-04-13T19:23:26.334Z,12.00
2018-04-13T19:25:54.036Z,11.10
2018-04-13T19:28:21.800Z,11.53
2018-04-13T19:30:49.523Z,9.97
2018-04-13T19:33:17.287Z,10.27
2018-04-13T19:35:44.978Z,10.43
2018-04-13T19:38:12.736Z,10.20
2018-04-13T19:40:40.452Z,9.20
2018-04-13T19:43:08.159Z,10.97
2018-04-13T19:45:35.799Z,10.80
2018-04-13T19:48:03.503Z,11.17
2018-04-13T19:50:31.127Z,10.20
2018-04-13T19:52:58.971Z,10.57
2018-04-13T19:55:26.624Z,12.90
2018-04-13T19:57:54.380Z,11.73
2018-04-13T20:00:22.082Z,11.50
2018-04-13T20:02:49.845Z,11.40
2018-04-13T20:05:17.629Z,11.07
2018-04-13T20:07:45.325Z,10.80
2018-04-13T20:10:13.046Z,9.80
2018-04-13T20:12:40.696Z,11.17
2018-04-13T20:15:08.352Z,10.37
2018-04-13T20:17:36.502Z,9.90
2018-04-13T20:20:04.251Z,10.77
2018-04-13T20:22:31.988Z,12.80
2018-04-13T20:24:59.645Z,11.23
2018-04-13T20:27:27.412Z,10.70
2018-04-13T20:29:55.134Z,10.93
2018-04-13T20:32:22.931Z,13.10
2018-04-13T20:34:50.609Z,11.80
2018-04-13T20:37:18.357Z,11.20
2018-04-13T20:39:46.074Z,10.80
2018-04-13T20:42:13.789Z,11.40
2018-04-13T20:44:41.666Z,28.33
2018-04-13T20:47:09.304Z,77.00
2018-04-13T20:49:37.037Z,28.60
2018-04-13T20:52:04.800Z,11.53
2018-04-13T20:54:32.450Z,10.20
2018-04-13T20:57:00.128Z,10.77
2018-04-13T20:59:27.850Z,9.80
2018-04-13T21:01:55.549Z,11.27
2018-04-13T21:04:23.169Z,12.10
2018-04-13T21:06:51.174Z,12.77
2018-04-13T21:09:18.780Z,11.77
2018-04-13T21:11:46.474Z,11.93
2018-04-13T21:14:14.163Z,11.07
2018-04-13T21:16:41.880Z,11.20
2018-04-13T21:19:09.572Z,14.00
2018-04-13T21:21:38.229Z,24.70
2018-04-13T21:24:06.116Z,12.70
2018-04-13T21:26:33.799Z,11.10
2018-04-13T21:29:01.714Z,9.73
2018-04-13T21:31:29.533Z,10.97
2018-04-13T21:33:57.288Z,10.73
2018-04-13T21:36:25.151Z,10.40
2018-04-13T21:38:52.819Z,11.20
2018-04-13T21:41:20.469Z,11.13
2018-04-13T21:43:49.226Z,9.60
2018-04-13T21:46:16.902Z,11.60
2018-04-13T21:48:44.597Z,10.40
2018-04-13T21:51:12.215Z,10.67
2018-04-13T21:53:40.046Z,9.87
2018-04-13T21:56:07.848Z,12.23
2018-04-13T21:58:35.735Z,10.13
2018-04-13T22:01:03.378Z,11.53
2018-04-13T22:03:31.097Z,10.43
2018-04-13T22:05:58.746Z,10.73
2018-04-13T22:08:26.459Z,10.87
2018-04-13T22:10:54.105Z,11.10
2018-04-13T22:13:27.614Z,9.30
2018-04-13T22:15:55.241Z,9.27
2018-04-13T22:18:22.886Z,10.40
2018-04-13T22:20:50.526Z,12.20
2018-04-13T22:23:18.265Z,13.30
2018-04-13T22:25:45.919Z,13.07
2018-04-13T22:28:13.559Z,11.27
2018-04-13T22:30:41.220Z,10.20
2018-04-13T22:33:08.889Z,10.77
2018-04-13T22:35:36.550Z,10.70
2018-04-13T22:38:04.172Z,11.07
2018-04-13T22:40:31.898Z,9.03
2018-04-13T22:42:59.542Z,8.10
2018-04-13T22:45:27.172Z,9.10
2018-04-13T22:47:54.823Z,7.50
2018-04-13T22:50:22.537Z,7.80
2018-04-13T22:52:50.169Z,7.60
2018-04-13T22:55:17.829Z,6.90
2018-04-13T22:57:45.529Z,8.40
2018-04-13T23:00:13.380Z,7.60
2018-04-13T23:02:41.016Z,6.80
2018-04-13T23:05:08.644Z,6.60
2018-04-13T23:07:36.306Z,6.57
2018-04-13T23:10:04.072Z,6.57
2018-04-13T23:12:31.757Z,6.80
2018-04-13T23:14:59.388Z,7.93
2018-04-13T23:17:27.054Z,6.37
2018-04-13T23:19:54.801Z,6.37
2018-04-13T23:22:33.953Z,7.27
2018-04-13T23:25:01.638Z,6.97
2018-04-13T23:27:29.314Z,6.67
2018-04-13T23:29:56.908Z,6.43
2018-04-13T23:32:24.601Z,7.13
2018-04-13T23:34:52.200Z,9.10
2018-04-13T23:37:19.848Z,7.23
2018-04-13T23:39:47.449Z,7.53
2018-04-13T23:42:15.100Z,6.87
2018-04-13T23:44:42.713Z,7.10
2018-04-13T23:47:10.328Z,7.07
2018-04-13T23:49:37.959Z,7.10
2018-04-13T23:52:05.583Z,6.67
2018-04-13T23:54:33.275Z,7.90
2018-04-13T23:57:00.893Z,6.80
2018-04-13T23:59:28.560Z,7.27
